sensor_id;sensor_type;location;lat;lon;timestamp;P1;durP1;ratioP1;P2;durP2;ratioP2
5339;SDS011;2692;48.848;8.924;2022-09-01T06:53:30;10.43;;;7.30;;
5339;SDS011;2692;48.848;8.924;2022-09-01T06:55:57;18.73;;;9.80;;
5339;SDS011;2692;48.848;8.924;2022-09-01T06:58:23;12.57;;;9.60;;
5339;SDS011;2692;48.848;8.924;2022-09-01T07:00:49;15.53;;;8.33;;
5339;SDS011;2692;48.848;8.924;2022-09-01T07:03:15;9.23;;;7.63;;
5339;SDS011;2692;48.848;8.924;2022-09-01T07:05:43;15.00;;;6.80;;
5339;SDS011;2692;48.848;8.924;2022-09-01T07:08:12;11.63;;;7.67;;
5339;SDS011;2692;48.848;8.924;2022-09-01T07:10:44;10.53;;;6.60;;
5339;SDS011;2692;48.848;8.924;2022-09-01T07:13:17;11.03;;;6.97;;
5339;SDS011;2692;48.848;8.924;2022-09-01T07:15:47;11.47;;;7.60;;
5339;SDS011;2692;48.848;8.924;2022-09-01T07:18:15;11.53;;;7.73;;
5339;SDS011;2692;48.848;8.924;2022-09-01T07:20:41;9.33;;;6.53;;
5339;SDS011;2692;48.848;8.924;2022-09-01T07:23:07;10.03;;;6.30;;
5339;SDS011;2692;48.848;8.924;2022-09-01T07:25:34;11.00;;;6.53;;
5339;SDS011;2692;48.848;8.924;2022-09-01T07:28:03;12.20;;;6.20;;
5339;SDS011;2692;48.848;8.924;2022-09-01T07:30:29;14.53;;;6.83;;
5339;SDS011;2692;48.848;8.924;2022-09-01T07:32:55;14.77;;;6.40;;
5339;SDS011;2692;48.848;8.924;2022-09-01T07:35:21;8.80;;;6.80;;
5339;SDS011;2692;48.848;8.924;2022-09-01T07:37:47;9.40;;;6.70;;
5339;SDS011;2692;48.848;8.924;2022-09-01T07:40:16;11.27;;;6.50;;
5339;SDS011;2692;48.848;8.924;2022-09-01T07:42:44;10.40;;;6.00;;
5339;SDS011;2692;48.848;8.924;2022-09-01T07:45:12;14.77;;;6.57;;
5339;SDS011;2692;48.848;8.924;2022-09-01T07:47:39;7.70;;;4.27;;
5339;SDS011;2692;48.848;8.924;2022-09-01T07:50:05;13.63;;;6.60;;
5339;SDS011;2692;48.848;8.924;2022-09-01T07:52:33;9.57;;;5.47;;
5339;SDS011;2692;48.848;8.924;2022-09-01T09:09:15;10.80;;;5.37;;
5339;SDS011;2692;48.848;8.924;2022-09-01T09:11:45;8.87;;;4.30;;
5339;SDS011;2692;48.848;8.924;2022-09-01T09:17:34;6.30;;;2.90;;
5339;SDS011;2692;48.848;8.924;2022-09-01T09:20:02;5.83;;;3.80;;
5339;SDS011;2692;48.848;8.924;2022-09-01T09:22:29;5.13;;;2.93;;
5339;SDS011;2692;48.848;8.924;2022-09-01T09:25:02;5.97;;;3.50;;
5339;SDS011;2692;48.848;8.924;2022-09-01T09:27:33;6.70;;;3.67;;
5339;SDS011;2692;48.848;8.924;2022-09-01T09:30:08;10.70;;;3.63;;
5339;SDS011;2692;48.848;8.924;2022-09-01T10:25:30;6.77;;;2.90;;
5339;SDS011;2692;48.848;8.924;2022-09-01T10:28:09;5.20;;;2.90;;
5339;SDS011;2692;48.848;8.924;2022-09-01T10:30:41;6.07;;;3.40;;
5339;SDS011;2692;48.848;8.924;2022-09-01T10:33:08;5.23;;;3.00;;
5339;SDS011;2692;48.848;8.924;2022-09-01T10:35:35;4.40;;;3.00;;
5339;SDS011;2692;48.848;8.924;2022-09-01T10:38:04;5.13;;;2.60;;
5339;SDS011;2692;48.848;8.924;2022-09-01T10:43:43;8.10;;;3.20;;
5339;SDS011;2692;48.848;8.924;2022-09-01T10:45:47;5.43;;;2.37;;
5339;SDS011;2692;48.848;8.924;2022-09-01T10:50:45;4.63;;;2.90;;
5339;SDS011;2692;48.848;8.924;2022-09-01T10:56:45;4.00;;;2.30;;
5339;SDS011;2692;48.848;8.924;2022-09-01T11:04:18;4.90;;;2.60;;
5339;SDS011;2692;48.848;8.924;2022-09-01T11:07:01;3.83;;;2.20;;
5339;SDS011;2692;48.848;8.924;2022-09-01T11:09:30;3.93;;;2.07;;
5339;SDS011;2692;48.848;8.924;2022-09-01T11:12:13;8.43;;;2.90;;
5339;SDS011;2692;48.848;8.924;2022-09-01T11:17:30;3.40;;;2.20;;
5339;SDS011;2692;48.848;8.924;2022-09-01T11:44:12;16.93;;;2.60;;
5339;SDS011;2692;48.848;8.924;2022-09-01T11:46:47;3.93;;;2.17;;
5339;SDS011;2692;48.848;8.924;2022-09-01T11:49:49;2.70;;;1.87;;
5339;SDS011;2692;48.848;8.924;2022-09-01T11:52:15;4.40;;;2.70;;
5339;SDS011;2692;48.848;8.924;2022-09-01T11:54:43;8.50;;;2.63;;
5339;SDS011;2692;48.848;8.924;2022-09-01T11:57:17;5.03;;;1.93;;
5339;SDS011;2692;48.848;8.924;2022-09-01T12:00:04;4.30;;;2.37;;
5339;SDS011;2692;48.848;8.924;2022-09-01T12:02:34;6.07;;;2.23;;
5339;SDS011;2692;48.848;8.924;2022-09-01T12:05:01;3.80;;;2.10;;
5339;SDS011;2692;48.848;8.924;2022-09-01T12:10:02;3.53;;;2.00;;
5339;SDS011;2692;48.848;8.924;2022-09-01T12:14:58;3.57;;;2.00;;
5339;SDS011;2692;48.848;8.924;2022-09-01T12:17:25;5.03;;;2.00;;
5339;SDS011;2692;48.848;8.924;2022-09-01T12:19:51;4.40;;;1.97;;
5339;SDS011;2692;48.848;8.924;2022-09-01T12:22:18;3.27;;;1.53;;
5339;SDS011;2692;48.848;8.924;2022-09-01T12:24:46;4.53;;;1.70;;
5339;SDS011;2692;48.848;8.924;2022-09-01T12:27:20;3.30;;;1.90;;
5339;SDS011;2692;48.848;8.924;2022-09-01T12:29:49;3.47;;;1.83;;
5339;SDS011;2692;48.848;8.924;2022-09-01T12:32:14;6.30;;;2.30;;
5339;SDS011;2692;48.848;8.924;2022-09-01T12:34:56;3.53;;;1.63;;
5339;SDS011;2692;48.848;8.924;2022-09-01T12:37:25;6.13;;;1.70;;
5339;SDS011;2692;48.848;8.924;2022-09-01T12:39:51;4.57;;;1.47;;
5339;SDS011;2692;48.848;8.924;2022-09-01T12:44:54;3.30;;;1.53;;
5339;SDS011;2692;48.848;8.924;2022-09-01T12:49:57;2.90;;;1.70;;
5339;SDS011;2692;48.848;8.924;2022-09-01T12:52:24;2.70;;;1.57;;
5339;SDS011;2692;48.848;8.924;2022-09-01T12:54:51;2.47;;;1.20;;
5339;SDS011;2692;48.848;8.924;2022-09-01T12:57:45;5.43;;;2.10;;
5339;SDS011;2692;48.848;8.924;2022-09-01T13:00:21;3.10;;;1.47;;
5339;SDS011;2692;48.848;8.924;2022-09-01T13:02:49;3.10;;;1.47;;
5339;SDS011;2692;48.848;8.924;2022-09-01T13:07:52;2.63;;;1.20;;
5339;SDS011;2692;48.848;8.924;2022-09-01T13:10:18;3.87;;;1.90;;
5339;SDS011;2692;48.848;8.924;2022-09-01T13:12:44;3.03;;;1.47;;
5339;SDS011;2692;48.848;8.924;2022-09-01T13:15:10;3.03;;;1.63;;
5339;SDS011;2692;48.848;8.924;2022-09-01T13:17:36;3.50;;;1.80;;
5339;SDS011;2692;48.848;8.924;2022-09-01T13:20:02;2.80;;;1.43;;
5339;SDS011;2692;48.848;8.924;2022-09-01T13:22:28;3.50;;;1.60;;
5339;SDS011;2692;48.848;8.924;2022-09-01T13:24:54;2.30;;;1.10;;
5339;SDS011;2692;48.848;8.924;2022-09-01T13:27:19;2.13;;;1.13;;
5339;SDS011;2692;48.848;8.924;2022-09-01T13:29:45;2.27;;;0.90;;
5339;SDS011;2692;48.848;8.924;2022-09-01T13:32:11;4.03;;;1.47;;
5339;SDS011;2692;48.848;8.924;2022-09-01T13:34:36;2.40;;;1.40;;
5339;SDS011;2692;48.848;8.924;2022-09-01T13:37:01;3.57;;;1.57;;
5339;SDS011;2692;48.848;8.924;2022-09-01T13:39:27;5.17;;;1.83;;
5339;SDS011;2692;48.848;8.924;2022-09-01T13:41:52;3.87;;;1.90;;
5339;SDS011;2692;48.848;8.924;2022-09-01T13:44:17;3.30;;;1.83;;
5339;SDS011;2692;48.848;8.924;2022-09-01T13:46:43;5.30;;;1.20;;
5339;SDS011;2692;48.848;8.924;2022-09-01T13:49:09;4.40;;;1.37;;
5339;SDS011;2692;48.848;8.924;2022-09-01T13:51:34;2.20;;;1.10;;
5339;SDS011;2692;48.848;8.924;2022-09-01T13:54:01;2.00;;;1.23;;
5339;SDS011;2692;48.848;8.924;2022-09-01T13:56:26;4.27;;;1.40;;
5339;SDS011;2692;48.848;8.924;2022-09-01T13:58:51;2.73;;;1.20;;
5339;SDS011;2692;48.848;8.924;2022-09-01T14:01:17;2.83;;;1.30;;
5339;SDS011;2692;48.848;8.924;2022-09-01T14:03:42;5.27;;;1.50;;
5339;SDS011;2692;48.848;8.924;2022-09-01T14:06:08;2.37;;;1.30;;
5339;SDS011;2692;48.848;8.924;2022-09-01T14:08:33;2.97;;;1.40;;
5339;SDS011;2692;48.848;8.924;2022-09-01T14:10:58;3.73;;;1.80;;
5339;SDS011;2692;48.848;8.924;2022-09-01T14:13:24;3.80;;;2.00;;
5339;SDS011;2692;48.848;8.924;2022-09-01T14:15:50;4.17;;;1.73;;
5339;SDS011;2692;48.848;8.924;2022-09-01T14:18:17;3.07;;;1.43;;
5339;SDS011;2692;48.848;8.924;2022-09-01T14:20:44;3.97;;;1.80;;
5339;SDS011;2692;48.848;8.924;2022-09-01T14:23:11;4.85;;;1.70;;
5339;SDS011;2692;48.848;8.924;2022-09-01T14:25:41;7.27;;;2.53;;
5339;SDS011;2692;48.848;8.924;2022-09-01T14:28:09;4.33;;;2.10;;
5339;SDS011;2692;48.848;8.924;2022-09-01T14:30:34;3.57;;;1.60;;
5339;SDS011;2692;48.848;8.924;2022-09-01T14:32:59;3.40;;;2.00;;
5339;SDS011;2692;48.848;8.924;2022-09-01T14:35:25;3.80;;;2.20;;
5339;SDS011;2692;48.848;8.924;2022-09-01T14:37:51;3.10;;;1.80;;
5339;SDS011;2692;48.848;8.924;2022-09-01T14:40:18;2.50;;;1.27;;
5339;SDS011;2692;48.848;8.924;2022-09-01T14:42:45;7.53;;;2.13;;
5339;SDS011;2692;48.848;8.924;2022-09-01T14:45:13;3.40;;;1.63;;
5339;SDS011;2692;48.848;8.924;2022-09-01T14:47:42;4.73;;;2.03;;
5339;SDS011;2692;48.848;8.924;2022-09-01T14:50:08;4.57;;;2.20;;
5339;SDS011;2692;48.848;8.924;2022-09-01T14:52:34;3.40;;;1.90;;
5339;SDS011;2692;48.848;8.924;2022-09-01T14:55:01;3.30;;;1.80;;
5339;SDS011;2692;48.848;8.924;2022-09-01T14:57:26;3.30;;;1.67;;
5339;SDS011;2692;48.848;8.924;2022-09-01T14:59:52;3.50;;;1.70;;
5339;SDS011;2692;48.848;8.924;2022-09-01T15:02:17;3.90;;;1.90;;
5339;SDS011;2692;48.848;8.924;2022-09-01T15:04:43;7.63;;;2.53;;
5339;SDS011;2692;48.848;8.924;2022-09-01T15:07:08;3.77;;;2.03;;
5339;SDS011;2692;48.848;8.924;2022-09-01T15:09:34;3.90;;;2.37;;
5339;SDS011;2692;48.848;8.924;2022-09-01T15:11:59;3.43;;;2.10;;
5339;SDS011;2692;48.848;8.924;2022-09-01T15:14:25;2.73;;;1.43;;
5339;SDS011;2692;48.848;8.924;2022-09-01T15:16:50;4.23;;;1.80;;
5339;SDS011;2692;48.848;8.924;2022-09-01T15:19:15;3.37;;;1.53;;
5339;SDS011;2692;48.848;8.924;2022-09-01T15:21:41;8.10;;;1.80;;
5339;SDS011;2692;48.848;8.924;2022-09-01T15:24:08;2.33;;;1.20;;
5339;SDS011;2692;48.848;8.924;2022-09-01T15:26:34;4.67;;;1.90;;
5339;SDS011;2692;48.848;8.924;2022-09-01T15:28:59;4.60;;;2.03;;
5339;SDS011;2692;48.848;8.924;2022-09-01T15:31:28;3.13;;;1.47;;
5339;SDS011;2692;48.848;8.924;2022-09-01T15:33:57;3.03;;;1.40;;
5339;SDS011;2692;48.848;8.924;2022-09-01T15:36:24;3.10;;;1.73;;
5339;SDS011;2692;48.848;8.924;2022-09-01T15:38:50;3.10;;;1.80;;
5339;SDS011;2692;48.848;8.924;2022-09-01T15:41:17;2.93;;;1.87;;
5339;SDS011;2692;48.848;8.924;2022-09-01T15:43:44;4.17;;;1.33;;
5339;SDS011;2692;48.848;8.924;2022-09-01T15:46:09;3.00;;;1.73;;
5339;SDS011;2692;48.848;8.924;2022-09-01T15:48:36;3.80;;;2.23;;
5339;SDS011;2692;48.848;8.924;2022-09-01T15:51:11;2.90;;;1.60;;
5339;SDS011;2692;48.848;8.924;2022-09-01T15:53:47;4.93;;;1.93;;
5339;SDS011;2692;48.848;8.924;2022-09-01T15:56:17;2.80;;;1.30;;
5339;SDS011;2692;48.848;8.924;2022-09-01T15:58:43;3.13;;;1.70;;
5339;SDS011;2692;48.848;8.924;2022-09-01T16:01:09;2.97;;;1.50;;
5339;SDS011;2692;48.848;8.924;2022-09-01T16:03:34;3.63;;;1.67;;
5339;SDS011;2692;48.848;8.924;2022-09-01T16:06:00;12.60;;;2.20;;
5339;SDS011;2692;48.848;8.924;2022-09-01T16:08:26;3.20;;;1.60;;
5339;SDS011;2692;48.848;8.924;2022-09-01T16:10:51;3.30;;;1.50;;
5339;SDS011;2692;48.848;8.924;2022-09-01T16:13:18;7.53;;;1.73;;
5339;SDS011;2692;48.848;8.924;2022-09-01T16:15:45;4.50;;;1.77;;
5339;SDS011;2692;48.848;8.924;2022-09-01T16:18:25;3.97;;;1.90;;
5339;SDS011;2692;48.848;8.924;2022-09-01T16:21:00;2.67;;;1.47;;
5339;SDS011;2692;48.848;8.924;2022-09-01T16:23:38;2.70;;;1.33;;
5339;SDS011;2692;48.848;8.924;2022-09-01T16:26:08;4.27;;;1.43;;
5339;SDS011;2692;48.848;8.924;2022-09-01T16:28:35;3.53;;;1.40;;
5339;SDS011;2692;48.848;8.924;2022-09-01T16:31:07;2.57;;;1.37;;
5339;SDS011;2692;48.848;8.924;2022-09-01T16:33:35;3.33;;;1.60;;
5339;SDS011;2692;48.848;8.924;2022-09-01T16:38:57;2.10;;;1.23;;
5339;SDS011;2692;48.848;8.924;2022-09-01T16:47:04;4.07;;;1.80;;
5339;SDS011;2692;48.848;8.924;2022-09-01T16:49:48;3.63;;;2.00;;
5339;SDS011;2692;48.848;8.924;2022-09-01T16:52:21;3.70;;;1.90;;
5339;SDS011;2692;48.848;8.924;2022-09-01T16:55:10;3.10;;;1.60;;
5339;SDS011;2692;48.848;8.924;2022-09-01T16:57:42;3.90;;;1.90;;
5339;SDS011;2692;48.848;8.924;2022-09-01T17:00:15;4.20;;;1.57;;
5339;SDS011;2692;48.848;8.924;2022-09-01T17:08:17;3.90;;;2.10;;
5339;SDS011;2692;48.848;8.924;2022-09-01T17:10:50;3.60;;;1.93;;
5339;SDS011;2692;48.848;8.924;2022-09-01T17:13:40;4.10;;;1.40;;
5339;SDS011;2692;48.848;8.924;2022-09-01T17:16:09;2.37;;;1.20;;
5339;SDS011;2692;48.848;8.924;2022-09-01T17:18:38;4.50;;;1.63;;
5339;SDS011;2692;48.848;8.924;2022-09-01T17:21:13;2.40;;;1.47;;
5339;SDS011;2692;48.848;8.924;2022-09-01T17:23:49;3.87;;;1.50;;
5339;SDS011;2692;48.848;8.924;2022-09-01T17:26:20;2.67;;;1.60;;
5339;SDS011;2692;48.848;8.924;2022-09-01T17:28:54;2.83;;;1.77;;
5339;SDS011;2692;48.848;8.924;2022-09-01T17:32:06;4.03;;;1.70;;
5339;SDS011;2692;48.848;8.924;2022-09-01T17:40:02;4.63;;;1.50;;
5339;SDS011;2692;48.848;8.924;2022-09-01T17:47:42;3.60;;;1.90;;
5339;SDS011;2692;48.848;8.924;2022-09-01T17:50:30;2.63;;;1.53;;
5339;SDS011;2692;48.848;8.924;2022-09-01T18:00:36;3.33;;;1.90;;
5339;SDS011;2692;48.848;8.924;2022-09-01T18:05:58;3.63;;;2.10;;
5339;SDS011;2692;48.848;8.924;2022-09-01T18:08:50;2.23;;;1.27;;
5339;SDS011;2692;48.848;8.924;2022-09-01T18:14:15;3.13;;;1.40;;
5339;SDS011;2692;48.848;8.924;2022-09-01T18:16:52;4.50;;;2.00;;
5339;SDS011;2692;48.848;8.924;2022-09-01T18:19:23;3.10;;;1.70;;
5339;SDS011;2692;48.848;8.924;2022-09-01T18:22:02;6.70;;;1.93;;
5339;SDS011;2692;48.848;8.924;2022-09-01T18:24:32;3.93;;;1.80;;
5339;SDS011;2692;48.848;8.924;2022-09-01T18:26:57;3.33;;;1.80;;
5339;SDS011;2692;48.848;8.924;2022-09-01T18:29:25;5.63;;;1.90;;
5339;SDS011;2692;48.848;8.924;2022-09-01T18:37:23;6.27;;;2.23;;
5339;SDS011;2692;48.848;8.924;2022-09-01T18:43:17;2.80;;;1.87;;
5339;SDS011;2692;48.848;8.924;2022-09-01T18:46:08;3.23;;;2.20;;
5339;SDS011;2692;48.848;8.924;2022-09-01T18:49:08;3.63;;;1.43;;
5339;SDS011;2692;48.848;8.924;2022-09-01T18:54:47;4.13;;;1.70;;
5339;SDS011;2692;48.848;8.924;2022-09-01T18:57:21;3.30;;;1.93;;
5339;SDS011;2692;48.848;8.924;2022-09-01T18:59:56;3.03;;;2.13;;
5339;SDS011;2692;48.848;8.924;2022-09-01T19:04:59;2.83;;;1.70;;
5339;SDS011;2692;48.848;8.924;2022-09-01T19:10:12;5.37;;;2.23;;
5339;SDS011;2692;48.848;8.924;2022-09-01T19:15:33;3.30;;;2.00;;
5339;SDS011;2692;48.848;8.924;2022-09-01T19:20:42;5.00;;;2.37;;
5339;SDS011;2692;48.848;8.924;2022-09-01T19:23:17;3.77;;;2.27;;
5339;SDS011;2692;48.848;8.924;2022-09-01T19:26:05;4.13;;;2.13;;
5339;SDS011;2692;48.848;8.924;2022-09-01T19:31:11;3.43;;;2.23;;
5339;SDS011;2692;48.848;8.924;2022-09-01T19:33:43;14.30;;;2.20;;
5339;SDS011;2692;48.848;8.924;2022-09-01T19:36:15;4.17;;;2.20;;
5339;SDS011;2692;48.848;8.924;2022-09-01T19:38:43;3.83;;;2.30;;
5339;SDS011;2692;48.848;8.924;2022-09-01T19:41:12;4.13;;;2.20;;
5339;SDS011;2692;48.848;8.924;2022-09-01T19:43:47;6.10;;;2.63;;
5339;SDS011;2692;48.848;8.924;2022-09-01T19:54:58;4.17;;;2.13;;
5339;SDS011;2692;48.848;8.924;2022-09-01T19:57:31;4.90;;;2.10;;
5339;SDS011;2692;48.848;8.924;2022-09-01T20:02:40;3.17;;;2.33;;
5339;SDS011;2692;48.848;8.924;2022-09-01T20:10:28;4.20;;;1.80;;
5339;SDS011;2692;48.848;8.924;2022-09-01T20:15:52;2.70;;;2.00;;
5339;SDS011;2692;48.848;8.924;2022-09-01T20:18:21;4.80;;;2.73;;
5339;SDS011;2692;48.848;8.924;2022-09-01T20:20:51;5.20;;;2.17;;
5339;SDS011;2692;48.848;8.924;2022-09-01T20:25:58;4.10;;;2.57;;
5339;SDS011;2692;48.848;8.924;2022-09-01T20:28:29;5.07;;;2.10;;
5339;SDS011;2692;48.848;8.924;2022-09-01T20:31:02;5.10;;;2.10;;
5339;SDS011;2692;48.848;8.924;2022-09-01T20:33:39;2.53;;;1.67;;
5339;SDS011;2692;48.848;8.924;2022-09-01T20:39:15;4.23;;;2.07;;
5339;SDS011;2692;48.848;8.924;2022-09-01T20:42:01;5.27;;;1.90;;
5339;SDS011;2692;48.848;8.924;2022-09-01T20:44:32;4.53;;;2.10;;
5339;SDS011;2692;48.848;8.924;2022-09-01T20:47:05;4.37;;;2.23;;
5339;SDS011;2692;48.848;8.924;2022-09-01T20:49:35;4.60;;;1.87;;
5339;SDS011;2692;48.848;8.924;2022-09-01T20:54:54;3.00;;;1.73;;
5339;SDS011;2692;48.848;8.924;2022-09-01T20:57:27;4.27;;;2.50;;
5339;SDS011;2692;48.848;8.924;2022-09-01T21:00:00;7.70;;;2.97;;
5339;SDS011;2692;48.848;8.924;2022-09-01T21:05:57;2.27;;;1.70;;
5339;SDS011;2692;48.848;8.924;2022-09-01T21:08:42;8.00;;;1.80;;
